Saturday, November 01, 2014
09:11 UTC
  |  Log In   |  Register Free
Airport Search:

Page Field Airport
(KFMY)

FAA data valid effective September 18, 2014 - November 13, 2014 (unless otherwise noted).

 
 
 
 
 
 
 
 
 
 
 
 
 
 

Current Aviation Weather for Page Field Airport (KFMY)

The most recent METAR observation for KFMY was updated at: 0810
METAR Summary (Translated METAR)
KFMY
010753Z 00000KT 10SM FEW065 16/12 A2991 RMK AO2 SLP131 T01610122 $
KRSW
010753Z AUTO 00000KT 10SM CLR 15/12 A2992 RMK AO2 SLP130 T01500122
(6.5 nm SE from KFMY)
KPGD
010753Z AUTO 00000KT 10SM CLR 15/12 A2993 RMK AO2 SLP135 T01500122
(21.1 nm NW from KFMY)
TAF Summary (Translated TAF)
KFMY
010540Z 0106/0206 33005KT P6SM SCT040 FM011500 33017G26KT P6SM SCT040 FM020000 35009KT P6SM SKC
KRSW
(6.5 nm SE from KFMY)
010540Z 0106/0206 32005KT P6SM SCT040 FM011500 33017G26KT P6SM SCT040 FM012300 35009KT P6SM SKC
  Airport Weather Conditions for KFMY

 Current Weather at FMY
61° F
A Few Clouds
North winds at 0.0 mph
FMY NOAA Radar

Pressure: 29.91 in
Humidity: 78%
Wind: Calm
Dew Point: 54.0°F
Visibility: 10.00 mi


Airport Weather Forecast for KFMY

Translated METAR and TAF for KFMY
Translated METAR for KFMY (0906 UTC 01 November 2014)
found at http://aviationweather.gov/adds/metars/
 
METAR text: KFMY 010853Z 00000KT 10SM FEW080 16/13 A2991 RMK AO2 SLP130 T01610128 58005 $
Conditions at: KFMY (FORT MYERS , FL, US) observed 0853 UTC 01 November 2014
Temperature: 16.1°C (61°F)
Dewpoint: 12.8°C (55°F) [RH = 81%]
Pressure (altimeter): 29.91 inches Hg (1013.0 mb)
[Sea-level pressure: 1013.0 mb]
Winds: calm
Visibility: 10 or more miles (16+ km)
Ceiling: at least 12,000 feet AGL
Clouds: few clouds at 8000 feet AGL
Weather:
SOME DATA ABOVE MAY BE INACCURATE!!!
"$" is an indication the sensor requires maintenance
Translated TAF for KFMY
Forecast for: KFMY (FORT MYERS , FL, US)
TAF Text: KFMY 010540Z 0106/0206 33005KT P6SM SCT040
Forecast period: 0600 to 1500 UTC 01 November 2014
Forecast type: FROM: standard forecast or significant change
Winds: from the NNW (330 degrees) at 6 MPH (5 knots; 2.6 m/s)
Visibility: 6 or more miles (10+ km)
Clouds: scattered clouds at 4000 feet AGL
Weather: no significant weather forecast for this period
TAF Text: FM011500 33017G26KT P6SM SCT040
Forecast period: 1500 UTC 01 November 2014 to 0000 UTC 02 November 2014
Forecast type: FROM: standard forecast or significant change
Winds: from the NNW (330 degrees) at 20 MPH (17 knots; 8.8 m/s)
gusting to 30 MPH (26 knots; 13.5 m/s)
Visibility: 6 or more miles (10+ km)
Clouds: scattered clouds at 4000 feet AGL
Weather: no significant weather forecast for this period
TAF Text: FM020000 35009KT P6SM SKC
Forecast period: 0000 to 0600 UTC 02 November 2014
Forecast type: FROM: standard forecast or significant change
Winds: from the N (350 degrees) at 10 MPH (9 knots; 4.7 m/s)
Visibility: 6 or more miles (10+ km)
Clouds: clear skies
Weather: no significant weather forecast for this period

Find All Airport Services Find A Hotel Find A Rental Car Find A Golf Course Find A Restaurant $100 Hamburger



FBO's on the Field
FBO Company Facility Photos Services Transportation Aviation Fuel Prices: Prices include tax
Catering Weather Repair Courtesy Rental Type 100LL JetA JetA+ MOGAS 8087
 
Base Operations at Page Field

Currently rated 4.8 by 2 people
FS:Avfuel
Last Updated: Oct-28
Login to update fuel prices
SS:
Contact Base Operations at Page FieldMore FBO Information
 
Add another FBO Facility Photos Catering Weather Repair Courtesy Rental Type 100LL JetA JetA+ MOGAS 8087
Services Transportation Aviation Fuel Prices: Prices include tax


model-print
model-print
model-print
model-print